Time;durP1;ratioP1;P1;durP2;ratioP2;P2;SDS_P1;SDS_P2;PMS_P1;PMS_P2;Temp;Humidity;BMP_temperature;BMP_pressure;BME280_temperature;BME280_humidity;BME280_pressure;Samples;Min_cycle;Max_cycle;Signal;HPM_P1;HPM_P2
2023/12/18 00:02:04;;;;;;;0.90;0.90;;;-0.90;99.90;;;;;;5019381;28;20260;-84
2023/12/18 00:04:29;;;;;;;0.90;0.90;;;-0.90;99.90;;;;;;5034564;28;20225;-83
2023/12/18 00:06:55;;;;;;;1.00;1.00;;;-1.00;99.90;;;;;;5036966;28;20200;-83
2023/12/18 00:09:20;;;;;;;0.90;0.90;;;-1.00;99.90;;;;;;5034249;28;20258;-82
2023/12/18 00:11:46;;;;;;;0.90;0.90;;;-0.90;99.90;;;;;;5032432;28;20294;-83
2023/12/18 00:14:12;;;;;;;0.90;0.90;;;-1.00;99.90;;;;;;5024261;28;20176;-83
2023/12/18 00:16:37;;;;;;;0.90;0.90;;;-1.00;99.90;;;;;;5032783;28;20254;-83
2023/12/18 00:19:04;;;;;;;1.00;1.00;;;-1.00;99.90;;;;;;5033157;28;20184;-83
2023/12/18 00:21:30;;;;;;;1.00;1.00;;;-1.00;99.90;;;;;;5033398;28;20183;-83
2023/12/18 00:23:55;;;;;;;1.00;1.00;;;-1.00;99.90;;;;;;5041288;28;20191;-82
2023/12/18 00:26:21;;;;;;;0.90;0.90;;;-1.00;99.90;;;;;;5060032;28;20180;-82
2023/12/18 00:28:46;;;;;;;0.90;0.90;;;-1.00;99.90;;;;;;5061012;28;20184;-81
2023/12/18 00:31:12;;;;;;;1.00;1.00;;;-1.00;99.90;;;;;;5060841;28;20190;-82
2023/12/18 00:33:37;;;;;;;1.07;1.07;;;-1.10;99.90;;;;;;5060787;28;20176;-82
2023/12/18 00:36:04;;;;;;;0.90;0.90;;;-1.10;99.90;;;;;;5048225;28;20203;-86
2023/12/18 00:38:30;;;;;;;0.90;0.90;;;-1.00;99.90;;;;;;5043537;28;20723;-84
2023/12/18 00:40:56;;;;;;;0.90;0.90;;;-1.00;99.90;;;;;;5042607;28;20180;-83
2023/12/18 00:43:21;;;;;;;0.97;0.97;;;-1.00;99.90;;;;;;5041725;28;20247;-83
2023/12/18 00:45:47;;;;;;;0.90;0.90;;;-0.50;99.90;;;;;;5041495;28;20242;-83
2023/12/18 00:48:12;;;;;;;0.93;0.93;;;-0.90;99.90;;;;;;5041659;28;20183;-82
2023/12/18 00:50:38;;;;;;;0.90;0.90;;;-0.90;99.90;;;;;;5040254;28;20172;-83
2023/12/18 00:53:03;;;;;;;0.83;0.83;;;-0.90;99.90;;;;;;5041384;28;20626;-83
2023/12/18 00:55:29;;;;;;;0.97;0.97;;;-0.90;99.90;;;;;;5039841;28;20176;-84
2023/12/18 00:57:55;;;;;;;0.90;0.90;;;-0.90;99.90;;;;;;5039608;28;20180;-83
2023/12/18 01:00:21;;;;;;;0.90;0.90;;;-0.90;99.90;;;;;;5038947;28;20234;-83
2023/12/18 01:02:47;;;;;;;1.00;1.00;;;-0.90;99.90;;;;;;5039513;28;20246;-82
2023/12/18 01:05:14;;;;;;;1.00;1.00;;;-0.90;99.90;;;;;;5040018;28;20172;-82
2023/12/18 01:07:40;;;;;;;0.90;0.90;;;-0.90;99.90;;;;;;5040588;28;20196;-84
2023/12/18 01:10:07;;;;;;;0.90;0.90;;;-0.90;99.90;;;;;;5040165;28;20184;-83
2023/12/18 01:12:33;;;;;;;1.00;1.00;;;-1.00;99.90;;;;;;5040465;28;20176;-83
2023/12/18 01:14:58;;;;;;;0.90;0.90;;;-0.90;99.90;;;;;;5054731;28;20184;-82
2023/12/18 01:17:24;;;;;;;0.90;0.90;;;-0.90;99.90;;;;;;5055741;28;20509;-82
2023/12/18 01:19:49;;;;;;;1.00;1.00;;;-0.90;99.90;;;;;;5056006;28;20191;-82
2023/12/18 01:22:15;;;;;;;1.30;1.20;;;-0.90;99.90;;;;;;5055932;28;20234;-82
2023/12/18 01:24:40;;;;;;;0.90;0.90;;;-1.00;99.90;;;;;;5051650;28;20279;-83
2023/12/18 01:27:06;;;;;;;1.80;1.60;;;-1.00;99.90;;;;;;5038518;28;20206;-84
2023/12/18 01:29:32;;;;;;;2.10;1.80;;;-1.10;99.90;;;;;;5037748;28;20184;-83
2023/12/18 01:31:57;;;;;;;0.90;0.90;;;-1.20;99.90;;;;;;5036334;28;20194;-83
2023/12/18 01:34:23;;;;;;;1.10;1.10;;;-1.20;99.90;;;;;;5036797;28;20195;-83
2023/12/18 01:36:48;;;;;;;1.20;1.20;;;-1.30;99.90;;;;;;5035831;28;20187;-83
2023/12/18 01:39:14;;;;;;;1.00;1.00;;;-1.30;99.90;;;;;;5037626;28;20179;-83
2023/12/18 01:41:40;;;;;;;1.13;1.13;;;-1.30;99.90;;;;;;5037378;28;20176;-83
2023/12/18 01:44:05;;;;;;;0.90;0.90;;;-1.40;99.90;;;;;;5036571;28;20218;-83
2023/12/18 01:46:35;;;;;;;0.90;0.90;;;-1.60;99.90;;;;;;5036302;28;20199;-82
2023/12/18 01:49:01;;;;;;;0.90;0.90;;;-1.50;99.90;;;;;;5037201;28;20624;-83
2023/12/18 01:51:27;;;;;;;1.10;1.10;;;-1.50;99.90;;;;;;5036909;28;20173;-83
2023/12/18 01:53:55;;;;;;;0.90;0.90;;;-1.40;99.90;;;;;;5046754;28;20164;-81
2023/12/18 01:56:25;;;;;;;1.00;1.00;;;-1.40;99.90;;;;;;5056663;28;20505;-82
2023/12/18 01:58:53;;;;;;;0.90;0.90;;;-1.40;99.90;;;;;;5057447;28;20172;-81
2023/12/18 02:01:19;;;;;;;0.90;0.90;;;-1.40;99.90;;;;;;5053956;28;20188;-81
2023/12/18 02:03:46;;;;;;;0.90;0.90;;;-1.30;99.90;;;;;;5035529;28;20585;-83
2023/12/18 02:06:13;;;;;;;0.80;0.80;;;-1.30;99.90;;;;;;5019640;28;20335;-83
2023/12/18 02:08:39;;;;;;;1.00;1.00;;;-1.30;99.90;;;;;;5017722;28;20173;-82
2023/12/18 02:11:05;;;;;;;1.07;1.07;;;-1.30;99.90;;;;;;5019672;28;20172;-83
2023/12/18 02:13:30;;;;;;;1.00;1.00;;;-1.30;99.90;;;;;;5019222;28;20184;-83
2023/12/18 02:15:57;;;;;;;0.93;0.93;;;-1.30;99.90;;;;;;5029685;28;20200;-83
2023/12/18 02:18:23;;;;;;;0.90;0.90;;;-1.30;99.90;;;;;;5038423;28;20553;-84
2023/12/18 02:20:49;;;;;;;0.90;0.90;;;-1.30;99.90;;;;;;5038122;28;20234;-83
2023/12/18 02:23:14;;;;;;;1.00;1.00;;;-1.50;99.90;;;;;;5037675;28;20218;-84
2023/12/18 02:25:41;;;;;;;1.07;1.07;;;-1.60;99.90;;;;;;5036938;28;20765;-83
2023/12/18 02:28:10;;;;;;;1.00;1.00;;;-1.70;99.90;;;;;;5036984;28;20176;-84
2023/12/18 02:30:35;;;;;;;1.00;1.00;;;-1.70;99.90;;;;;;5037244;28;20202;-84
2023/12/18 02:33:01;;;;;;;1.07;1.07;;;-1.70;99.90;;;;;;5037139;28;20178;-83
2023/12/18 02:35:27;;;;;;;1.10;1.10;;;-1.70;99.90;;;;;;5034108;28;20638;-82
2023/12/18 02:37:53;;;;;;;1.10;1.10;;;-1.90;99.90;;;;;;5035950;28;20262;-84
2023/12/18 02:40:18;;;;;;;1.00;1.00;;;-1.80;99.90;;;;;;5039976;28;20178;-82
2023/12/18 02:42:44;;;;;;;0.90;0.90;;;-1.80;99.90;;;;;;5050005;28;20208;-82
2023/12/18 02:45:10;;;;;;;1.00;1.00;;;-1.70;99.90;;;;;;5041113;28;20172;-83
2023/12/18 02:47:36;;;;;;;0.90;0.90;;;-1.70;99.90;;;;;;5040171;28;20199;-83
2023/12/18 02:50:01;;;;;;;1.00;1.00;;;-1.60;99.90;;;;;;5039900;28;20187;-84
2023/12/18 02:52:28;;;;;;;1.00;1.00;;;-1.20;99.90;;;;;;5039450;28;20203;-84
2023/12/18 02:54:54;;;;;;;0.90;0.90;;;-1.80;99.90;;;;;;5039304;28;20210;-84
2023/12/18 02:57:19;;;;;;;0.90;0.90;;;-1.70;99.90;;;;;;5040447;28;20196;-84
2023/12/18 02:59:45;;;;;;;0.90;0.90;;;-1.80;99.90;;;;;;5040001;28;20201;-84
2023/12/18 03:02:10;;;;;;;0.90;0.90;;;-1.90;99.90;;;;;;5039911;28;20212;-84
2023/12/18 03:04:42;;;;;;;1.00;1.00;;;-1.80;99.90;;;;;;5038376;28;20229;-84
2023/12/18 03:07:11;;;;;;;1.00;1.00;;;-1.80;99.90;;;;;;5037669;28;20215;-83
2023/12/18 03:09:37;;;;;;;0.90;0.90;;;-1.80;99.90;;;;;;5038630;28;20203;-84
2023/12/18 03:12:03;;;;;;;0.93;0.93;;;-1.80;99.90;;;;;;5038256;28;20180;-85
2023/12/18 03:14:28;;;;;;;1.20;1.20;;;-1.70;99.90;;;;;;5036566;28;20176;-83
2023/12/18 03:16:54;;;;;;;1.10;1.10;;;-1.90;99.90;;;;;;5033172;28;20223;-83
2023/12/18 03:19:19;;;;;;;1.10;1.10;;;-2.00;99.90;;;;;;5033257;28;20259;-83
2023/12/18 03:21:45;;;;;;;1.10;1.10;;;-1.90;99.90;;;;;;5033672;28;20663;-83
2023/12/18 03:24:11;;;;;;;1.40;1.30;;;-2.00;99.90;;;;;;5044003;28;20266;-82
2023/12/18 03:26:37;;;;;;;1.30;1.20;;;-1.90;99.90;;;;;;5045461;28;20200;-84
2023/12/18 03:29:02;;;;;;;1.00;1.00;;;-1.90;99.90;;;;;;5037224;28;20172;-85
2023/12/18 03:31:28;;;;;;;1.27;1.20;;;-1.90;99.90;;;;;;5037491;28;20607;-82
2023/12/18 03:33:53;;;;;;;0.90;0.90;;;-2.10;99.90;;;;;;5036425;28;20202;-84
2023/12/18 03:36:19;;;;;;;0.97;0.97;;;-2.00;99.90;;;;;;5036369;28;20270;-84
2023/12/18 03:38:44;;;;;;;1.10;1.10;;;-1.90;99.90;;;;;;5036809;28;20172;-84
2023/12/18 03:41:10;;;;;;;0.93;0.93;;;-2.10;99.90;;;;;;5036776;28;20207;-84
2023/12/18 03:43:35;;;;;;;0.90;0.90;;;-2.10;99.90;;;;;;5036122;28;20234;-84
2023/12/18 03:46:01;;;;;;;1.00;1.00;;;-2.00;99.90;;;;;;5036595;28;20203;-84
2023/12/18 03:48:27;;;;;;;0.80;0.80;;;-2.00;99.90;;;;;;5036868;28;20176;-83
2023/12/18 03:50:52;;;;;;;0.90;0.90;;;-2.00;99.90;;;;;;5036890;28;20179;-84
2023/12/18 03:53:18;;;;;;;1.00;1.00;;;-2.10;99.90;;;;;;5036177;28;20180;-84
2023/12/18 03:55:44;;;;;;;0.90;0.90;;;-2.20;99.90;;;;;;5035697;28;20196;-84
2023/12/18 03:58:09;;;;;;;0.80;0.80;;;-2.20;99.90;;;;;;5035600;28;20180;-84
2023/12/18 04:00:35;;;;;;;0.90;0.90;;;-2.10;99.90;;;;;;5040271;28;20534;-83
2023/12/18 04:03:03;;;;;;;0.90;0.90;;;-2.10;99.90;;;;;;5040166;28;20303;-83
2023/12/18 04:05:29;;;;;;;0.90;0.90;;;-2.00;99.90;;;;;;5039259;28;20239;-84
2023/12/18 04:07:54;;;;;;;0.90;0.90;;;-1.90;99.90;;;;;;5040224;28;20199;-82
2023/12/18 04:10:20;;;;;;;0.90;0.90;;;-1.90;99.90;;;;;;5040023;28;20183;-84
2023/12/18 04:12:45;;;;;;;1.00;1.00;;;-1.70;99.90;;;;;;5039006;28;20168;-84
2023/12/18 04:15:11;;;;;;;0.90;0.90;;;-1.80;99.90;;;;;;5038130;28;20241;-84
2023/12/18 04:17:37;;;;;;;0.90;0.90;;;-1.90;99.90;;;;;;5039454;28;20214;-84
2023/12/18 04:20:03;;;;;;;0.90;0.90;;;-1.80;99.90;;;;;;5039872;28;20245;-84
2023/12/18 04:22:30;;;;;;;0.90;0.90;;;-1.80;99.90;;;;;;5039366;28;20685;-84
2023/12/18 04:24:55;;;;;;;0.90;0.90;;;-1.90;99.90;;;;;;5038812;28;20271;-84
2023/12/18 04:27:21;;;;;;;1.00;1.00;;;-1.90;99.90;;;;;;5038577;28;20196;-84
2023/12/18 04:29:46;;;;;;;0.90;0.90;;;-1.90;99.90;;;;;;5039500;28;20512;-84
2023/12/18 04:32:12;;;;;;;0.97;0.97;;;-1.90;99.90;;;;;;5039274;28;20255;-83
2023/12/18 04:34:39;;;;;;;1.00;1.00;;;-1.90;99.90;;;;;;5038849;28;20630;-84
2023/12/18 04:37:05;;;;;;;0.90;0.90;;;-1.90;99.90;;;;;;5038287;28;20218;-84
2023/12/18 04:39:31;;;;;;;0.90;0.90;;;-1.90;99.90;;;;;;5039572;28;20656;-83
2023/12/18 04:41:57;;;;;;;0.80;0.80;;;-1.90;99.90;;;;;;5039303;28;20677;-83
2023/12/18 04:44:23;;;;;;;0.90;0.90;;;-2.00;99.90;;;;;;5039224;28;20187;-84
2023/12/18 04:46:48;;;;;;;0.80;0.80;;;-1.90;99.90;;;;;;5038610;28;20203;-83
2023/12/18 04:49:14;;;;;;;0.90;0.90;;;-1.90;99.90;;;;;;5039187;28;20658;-85
2023/12/18 04:51:40;;;;;;;0.90;0.90;;;-1.90;99.90;;;;;;5038335;28;20175;-84
2023/12/18 04:54:05;;;;;;;0.90;0.90;;;-1.90;99.90;;;;;;5038346;28;20176;-84
2023/12/18 04:56:31;;;;;;;0.90;0.90;;;-1.90;99.90;;;;;;5037393;28;20235;-84
2023/12/18 04:58:56;;;;;;;0.90;0.90;;;-1.90;99.90;;;;;;5038420;28;20172;-84
2023/12/18 05:01:22;;;;;;;0.93;0.93;;;-1.90;99.90;;;;;;5036787;28;20215;-84
2023/12/18 05:03:47;;;;;;;0.90;0.90;;;-1.90;99.90;;;;;;5037879;28;20266;-83
2023/12/18 05:06:20;;;;;;;0.90;0.90;;;-1.90;99.90;;;;;;5037576;28;20192;-83
2023/12/18 05:08:47;;;;;;;0.90;0.90;;;-1.80;99.90;;;;;;5037968;28;20183;-83
2023/12/18 05:11:13;;;;;;;0.87;0.87;;;-1.00;99.90;;;;;;5037693;28;20176;-84
2023/12/18 05:13:39;;;;;;;0.90;0.90;;;-1.90;99.90;;;;;;5038230;28;20195;-84
2023/12/18 05:16:05;;;;;;;0.97;0.97;;;-1.90;99.90;;;;;;5037453;28;20202;-84
2023/12/18 05:18:30;;;;;;;0.90;0.90;;;-1.90;99.90;;;;;;5033175;28;20215;-85
2023/12/18 05:20:57;;;;;;;0.90;0.90;;;-1.90;99.90;;;;;;5029058;28;20646;-83
2023/12/18 05:23:23;;;;;;;0.90;0.90;;;-1.90;99.90;;;;;;5028989;28;20196;-85
2023/12/18 05:25:50;;;;;;;0.90;0.90;;;-1.80;99.90;;;;;;5026604;28;20570;-83
2023/12/18 05:28:15;;;;;;;0.90;0.90;;;-1.80;99.90;;;;;;5036471;28;20180;-84
2023/12/18 05:30:41;;;;;;;0.90;0.90;;;-1.80;99.90;;;;;;5037376;28;20234;-84
2023/12/18 05:33:07;;;;;;;0.90;0.90;;;-1.90;99.90;;;;;;5037225;28;20176;-84
2023/12/18 05:35:33;;;;;;;0.97;0.97;;;-1.90;99.90;;;;;;5035470;28;20168;-84
2023/12/18 05:37:58;;;;;;;1.00;1.00;;;-1.90;99.90;;;;;;5037137;28;20226;-85
2023/12/18 05:40:24;;;;;;;0.90;0.90;;;-1.90;99.90;;;;;;5037238;28;20195;-82
2023/12/18 05:42:49;;;;;;;0.90;0.90;;;-1.90;99.90;;;;;;5036465;28;20207;-82
2023/12/18 05:45:15;;;;;;;1.00;1.00;;;-1.90;99.90;;;;;;5034965;28;20179;-82
2023/12/18 05:47:41;;;;;;;1.00;1.00;;;-1.80;99.90;;;;;;5035617;28;20543;-82
2023/12/18 05:50:07;;;;;;;0.90;0.90;;;-1.90;99.90;;;;;;5036007;28;20230;-82
2023/12/18 05:52:32;;;;;;;0.93;0.93;;;-1.90;99.90;;;;;;5036714;28;20164;-82
2023/12/18 05:54:58;;;;;;;0.93;0.93;;;-1.80;99.90;;;;;;5037018;28;20179;-82
2023/12/18 05:57:23;;;;;;;0.90;0.90;;;-1.90;99.90;;;;;;5035448;28;20295;-82
2023/12/18 05:59:49;;;;;;;0.90;0.90;;;-1.90;99.90;;;;;;5034958;28;20195;-82
2023/12/18 06:02:14;;;;;;;0.90;0.90;;;-1.90;99.90;;;;;;5035342;28;20200;-81
2023/12/18 06:04:43;;;;;;;0.90;0.90;;;-1.80;99.90;;;;;;5034081;28;20172;-82
2023/12/18 06:07:09;;;;;;;1.00;1.00;;;-1.70;99.90;;;;;;5034655;28;20207;-82
2023/12/18 06:09:35;;;;;;;0.97;0.97;;;-1.70;99.90;;;;;;5035039;28;20203;-82
2023/12/18 06:12:00;;;;;;;0.90;0.90;;;-1.60;99.90;;;;;;5034941;28;20175;-82
2023/12/18 06:14:26;;;;;;;0.80;0.80;;;-1.60;99.90;;;;;;5035294;28;20172;-81
2023/12/18 06:16:52;;;;;;;0.90;0.90;;;-1.60;99.90;;;;;;5034523;28;20203;-81
2023/12/18 06:19:17;;;;;;;0.90;0.90;;;-1.50;99.90;;;;;;5035692;28;20191;-82
2023/12/18 06:21:43;;;;;;;1.00;1.00;;;-1.50;99.90;;;;;;5035139;28;20222;-81
2023/12/18 06:24:09;;;;;;;1.00;1.00;;;-1.50;99.90;;;;;;5035171;28;20569;-82
2023/12/18 06:26:34;;;;;;;0.90;0.90;;;-1.50;99.90;;;;;;5035189;28;20206;-81
2023/12/18 06:29:00;;;;;;;0.93;0.93;;;-1.60;99.90;;;;;;5034473;28;20183;-81
2023/12/18 06:31:25;;;;;;;0.93;0.93;;;-1.60;99.90;;;;;;5036270;28;20186;-81
2023/12/18 06:33:51;;;;;;;0.80;0.80;;;-1.40;99.90;;;;;;5035566;28;20186;-81
2023/12/18 06:36:17;;;;;;;0.90;0.90;;;-1.40;99.90;;;;;;5034671;28;20199;-82
2023/12/18 06:38:43;;;;;;;1.00;1.00;;;-1.60;99.90;;;;;;5035854;28;20184;-81
2023/12/18 06:41:09;;;;;;;0.90;0.90;;;-1.50;99.90;;;;;;5036194;28;20255;-82
2023/12/18 06:43:34;;;;;;;1.00;1.00;;;-1.40;99.90;;;;;;5035249;28;20219;-82
2023/12/18 06:46:00;;;;;;;0.90;0.90;;;-1.30;99.90;;;;;;5036175;28;20211;-82
2023/12/18 06:48:26;;;;;;;0.83;0.83;;;-1.30;99.90;;;;;;5035014;28;20545;-81
2023/12/18 06:50:51;;;;;;;0.93;0.93;;;-1.40;99.90;;;;;;5034448;28;20244;-84
2023/12/18 06:53:17;;;;;;;0.97;0.97;;;-1.50;99.90;;;;;;5035961;28;20179;-83
2023/12/18 06:55:43;;;;;;;0.90;0.90;;;-1.50;99.90;;;;;;5049118;28;20203;-81
2023/12/18 06:58:08;;;;;;;0.90;0.90;;;-1.60;99.90;;;;;;5056519;28;20183;-81
2023/12/18 07:00:34;;;;;;;0.90;0.90;;;-1.60;99.90;;;;;;5056584;28;20183;-81
2023/12/18 07:02:59;;;;;;;0.90;0.90;;;-1.70;99.90;;;;;;5056222;28;20207;-82
2023/12/18 07:05:28;;;;;;;0.93;0.93;;;-1.70;99.90;;;;;;5036546;28;20180;-83
2023/12/18 07:07:57;;;;;;;0.93;0.93;;;-1.70;99.90;;;;;;5033345;28;20274;-82
2023/12/18 07:10:23;;;;;;;0.90;0.90;;;-1.70;99.90;;;;;;5033907;28;20191;-81
2023/12/18 07:12:49;;;;;;;1.00;1.00;;;-1.70;99.90;;;;;;5033531;28;20179;-82
2023/12/18 07:15:15;;;;;;;0.83;0.83;;;-1.70;99.90;;;;;;5033481;28;20172;-82
2023/12/18 07:17:40;;;;;;;0.90;0.90;;;-1.60;99.90;;;;;;5033242;28;20175;-82
2023/12/18 07:20:08;;;;;;;0.90;0.90;;;-1.60;99.90;;;;;;5034704;28;20182;-82
2023/12/18 07:22:34;;;;;;;0.90;0.90;;;-1.60;99.90;;;;;;5035483;28;20265;-81
2023/12/18 07:24:59;;;;;;;1.03;1.03;;;-1.60;99.90;;;;;;5051234;28;20180;-81
2023/12/18 07:27:25;;;;;;;1.00;1.00;;;-1.70;99.90;;;;;;5037987;28;20196;-83
2023/12/18 07:29:51;;;;;;;0.90;0.90;;;-1.60;99.90;;;;;;5037494;28;20180;-82
2023/12/18 07:32:16;;;;;;;0.90;0.90;;;-1.60;99.90;;;;;;5032988;28;20218;-84
2023/12/18 07:34:42;;;;;;;0.80;0.80;;;-1.40;99.90;;;;;;5030411;28;20649;-82
2023/12/18 07:37:08;;;;;;;0.90;0.90;;;-1.00;99.90;;;;;;5030668;28;20217;-83
2023/12/18 07:39:34;;;;;;;0.90;0.90;;;-0.20;99.90;;;;;;5031614;28;20261;-84
2023/12/18 07:42:01;;;;;;;0.90;0.90;;;0.00;99.90;;;;;;5040248;28;20586;-84
2023/12/18 07:44:27;;;;;;;0.93;0.93;;;0.20;99.90;;;;;;5045982;28;20176;-83
2023/12/18 07:46:53;;;;;;;0.87;0.87;;;0.50;99.90;;;;;;5043363;28;20222;-83
2023/12/18 07:49:19;;;;;;;1.00;1.00;;;0.80;57.30;;;;;;5046623;28;20172;-84
2023/12/18 07:51:45;;;;;;;0.70;0.70;;;1.40;5.50;;;;;;5046711;28;20171;-82
2023/12/18 07:54:10;;;;;;;0.70;0.70;;;2.40;1.00;;;;;;5054410;28;20156;-82
2023/12/18 07:56:36;;;;;;;0.80;0.80;;;2.90;1.00;;;;;;5035951;28;20192;-84
2023/12/18 07:59:03;;;;;;;0.80;0.80;;;3.20;1.00;;;;;;5034750;28;20182;-82
2023/12/18 08:01:28;;;;;;;0.67;0.67;;;3.40;1.00;;;;;;5035048;28;20199;-83
2023/12/18 08:03:54;;;;;;;0.70;0.70;;;3.80;99.90;;;;;;5035281;28;20222;-84
2023/12/18 08:06:19;;;;;;;0.67;0.67;;;4.20;5.90;;;;;;5033838;28;20195;-83
2023/12/18 08:08:45;;;;;;;0.70;0.70;;;4.70;99.90;;;;;;5035922;28;20182;-83
2023/12/18 08:11:10;;;;;;;0.53;0.53;;;4.60;1.00;;;;;;5036448;28;20665;-82
2023/12/18 08:13:38;;;;;;;0.50;0.50;;;4.90;1.00;;;;;;5035831;28;20176;-82
2023/12/18 08:16:07;;;;;;;0.47;0.47;;;5.00;1.00;;;;;;5034985;28;20207;-82
2023/12/18 08:18:33;;;;;;;0.50;0.50;;;5.20;1.00;;;;;;5035746;28;20286;-82
2023/12/18 08:20:59;;;;;;;0.50;0.50;;;5.30;99.90;;;;;;5036206;28;20760;-83
2023/12/18 08:23:24;;;;;;;0.60;0.60;;;4.30;1.00;;;;;;5035358;28;20274;-83
2023/12/18 08:25:50;;;;;;;0.50;0.50;;;5.10;1.00;;;;;;5037909;28;20759;-80
2023/12/18 08:28:15;;;;;;;0.70;0.70;;;5.40;99.90;;;;;;5053793;28;20180;-80
2023/12/18 08:30:43;;;;;;;0.60;0.60;;;5.40;58.00;;;;;;5052013;28;20198;-80
2023/12/18 08:33:08;;;;;;;0.60;0.60;;;4.50;99.90;;;;;;5053350;28;20210;-81
2023/12/18 08:35:34;;;;;;;0.70;0.70;;;3.90;1.00;;;;;;5047078;28;20234;-83
2023/12/18 08:37:59;;;;;;;0.50;0.50;;;3.90;99.90;;;;;;5037609;28;20172;-82
2023/12/18 08:40:25;;;;;;;0.60;0.60;;;3.90;1.00;;;;;;5038528;28;20164;-82
2023/12/18 08:42:52;;;;;;;0.57;0.57;;;3.80;99.90;;;;;;5037845;28;20222;-83
2023/12/18 08:45:17;;;;;;;0.50;0.50;;;4.00;1.00;;;;;;5039755;28;20168;-83
2023/12/18 08:47:43;;;;;;;0.40;0.40;;;4.20;99.90;;;;;;5041342;28;20642;-83
2023/12/18 08:50:09;;;;;;;0.50;0.50;;;4.00;99.90;;;;;;5042094;28;20218;-83
2023/12/18 08:52:35;;;;;;;0.50;0.50;;;4.00;1.00;;;;;;5041848;28;20187;-83
2023/12/18 08:55:01;;;;;;;0.50;0.50;;;4.40;1.00;;;;;;5042008;28;20176;-83
2023/12/18 08:57:27;;;;;;;0.40;0.40;;;5.40;1.00;;;;;;5041529;28;20271;-81
2023/12/18 08:59:54;;;;;;;0.50;0.50;;;6.30;99.90;;;;;;5042119;28;20219;-83
2023/12/18 09:02:19;;;;;;;0.40;0.40;;;7.00;1.00;;;;;;5041240;28;20203;-83
2023/12/18 09:04:45;;;;;;;0.40;0.40;;;7.90;1.00;;;;;;5041776;28;20180;-83
2023/12/18 09:07:11;;;;;;;0.40;0.40;;;8.40;1.00;;;;;;5040031;28;20188;-84
2023/12/18 09:09:39;;;;;;;0.40;0.40;;;8.80;1.00;;;;;;5040379;28;20203;-82
2023/12/18 09:12:07;;;;;;;0.40;0.40;;;9.00;1.00;;;;;;5041260;28;20175;-83
2023/12/18 09:14:33;;;;;;;0.43;0.43;;;9.30;1.00;;;;;;5041013;28;20171;-83
2023/12/18 09:16:59;;;;;;;0.40;0.40;;;9.60;1.00;;;;;;5040339;28;20693;-83
2023/12/18 09:19:25;;;;;;;0.40;0.40;;;9.60;1.00;;;;;;5040271;28;20179;-83
2023/12/18 09:21:51;;;;;;;0.37;0.37;;;9.60;1.00;;;;;;5039816;28;20172;-83
2023/12/18 09:24:16;;;;;;;0.40;0.40;;;9.90;1.00;;;;;;5040709;28;20310;-83
2023/12/18 09:26:43;;;;;;;0.30;0.30;;;10.20;1.00;;;;;;5040721;28;20203;-84
2023/12/18 09:29:09;;;;;;;0.30;0.30;;;10.00;1.00;;;;;;5039941;28;20250;-83
2023/12/18 09:31:35;;;;;;;0.40;0.40;;;10.10;1.00;;;;;;5039634;28;20554;-83
2023/12/18 09:34:01;;;;;;;0.40;0.40;;;9.90;1.00;;;;;;5039624;28;20183;-82
2023/12/18 09:36:26;;;;;;;0.40;0.40;;;10.60;1.00;;;;;;5039801;28;20196;-84
2023/12/18 09:38:52;;;;;;;0.30;0.30;;;10.90;1.00;;;;;;5040412;28;20715;-84
2023/12/18 09:41:26;;;;;;;0.30;0.30;;;10.70;1.00;;;;;;5039654;28;20182;-83
2023/12/18 09:43:52;;;;;;;0.40;0.40;;;9.70;1.00;;;;;;5038215;28;20274;-83
2023/12/18 09:46:22;;;;;;;0.40;0.40;;;9.30;1.00;;;;;;5038990;28;20196;-83
2023/12/18 09:48:48;;;;;;;0.30;0.30;;;10.20;1.00;;;;;;5039422;28;20176;-84
2023/12/18 09:51:17;;;;;;;0.40;0.40;;;10.40;1.00;;;;;;5040146;28;20168;-83
2023/12/18 09:53:43;;;;;;;0.40;0.40;;;8.80;1.00;;;;;;5041558;28;20171;-84
2023/12/18 09:56:10;;;;;;;0.33;0.33;;;10.10;1.00;;;;;;5037489;28;20227;-83
2023/12/18 09:58:38;;;;;;;0.30;0.30;;;10.70;1.00;;;;;;5018913;28;20184;-85
2023/12/18 10:01:04;;;;;;;0.40;0.40;;;10.50;1.00;;;;;;5019019;28;20196;-84
2023/12/18 10:03:30;;;;;;;0.30;0.30;;;10.50;1.00;;;;;;5018807;28;20571;-84
2023/12/18 10:05:55;;;;;;;0.30;0.30;;;9.60;1.00;;;;;;5016095;28;20658;-84
2023/12/18 10:08:21;;;;;;;0.37;0.37;;;10.90;1.00;;;;;;5019450;28;20173;-83
2023/12/18 10:10:47;;;;;;;0.33;0.33;;;11.30;1.00;;;;;;5018002;28;20263;-84
2023/12/18 10:13:13;;;;;;;0.30;0.30;;;11.50;1.00;;;;;;5018264;28;20235;-84
2023/12/18 10:15:41;;;;;;;0.30;0.30;;;11.50;1.00;;;;;;5019316;28;20196;-83
2023/12/18 10:18:21;;;;;;;0.40;0.40;;;11.50;1.00;;;;;;5020531;28;20160;-84
2023/12/18 10:20:48;;;;;;;0.30;0.30;;;11.70;1.00;;;;;;5022485;28;20172;-85
2023/12/18 10:23:14;;;;;;;0.50;0.50;;;11.80;1.00;;;;;;5019002;28;20244;-83
2023/12/18 10:25:39;;;;;;;0.40;0.40;;;12.30;1.00;;;;;;5018797;28;20197;-84
2023/12/18 10:28:06;;;;;;;0.40;0.40;;;13.40;1.00;;;;;;5024762;28;20180;-83
2023/12/18 10:30:34;;;;;;;0.30;0.30;;;12.90;1.00;;;;;;5036820;28;20199;-85
2023/12/18 10:33:05;;;;;;;0.30;0.30;;;12.80;1.00;;;;;;5038627;28;20203;-84
2023/12/18 10:35:31;;;;;;;0.40;0.40;;;12.90;1.00;;;;;;5056604;28;20176;-82
2023/12/18 10:37:57;;;;;;;0.30;0.30;;;12.80;1.00;;;;;;5040365;28;20318;-83
2023/12/18 10:40:26;;;;;;;0.40;0.40;;;13.10;1.00;;;;;;5037986;28;20179;-82
2023/12/18 10:43:14;;;;;;;0.50;0.50;;;12.50;1.00;;;;;;5037102;28;20214;-83
2023/12/18 10:45:43;;;;;;;0.40;0.40;;;11.60;1.00;;;;;;5036400;28;20196;-84
2023/12/18 10:48:11;;;;;;;0.40;0.40;;;10.60;1.00;;;;;;5036331;28;20180;-84
2023/12/18 10:50:37;;;;;;;0.50;0.50;;;10.00;1.00;;;;;;5036149;28;20271;-84
2023/12/18 10:53:04;;;;;;;0.50;0.50;;;9.80;1.00;;;;;;5037604;28;20191;-84
2023/12/18 10:55:31;;;;;;;0.50;0.50;;;8.90;1.00;;;;;;5036119;28;20202;-84
2023/12/18 10:57:58;;;;;;;0.50;0.50;;;9.40;1.00;;;;;;5035931;28;20187;-84
2023/12/18 11:00:25;;;;;;;0.50;0.50;;;8.60;1.00;;;;;;5035921;28;20194;-84
2023/12/18 11:02:54;;;;;;;0.40;0.40;;;8.80;1.00;;;;;;5025274;28;20550;-86
2023/12/18 11:05:21;;;;;;;0.40;0.40;;;9.50;1.00;;;;;;5029543;28;20237;-84
2023/12/18 11:07:47;;;;;;;0.30;0.30;;;10.30;1.00;;;;;;5033045;28;20211;-83
2023/12/18 11:10:13;;;;;;;0.40;0.40;;;10.50;1.00;;;;;;5036631;28;20309;-84
2023/12/18 11:12:42;;;;;;;0.30;0.30;;;12.10;1.00;;;;;;5036731;28;20664;-84
2023/12/18 11:15:32;;;;;;;0.40;0.40;;;13.80;1.00;;;;;;5037853;28;20176;-83
2023/12/18 11:18:26;;;;;;;0.40;0.40;;;14.70;1.00;;;;;;5037107;28;20179;-84
2023/12/18 11:20:54;;;;;;;0.40;0.40;;;14.90;1.00;;;;;;5032283;28;20633;-84
2023/12/18 11:23:20;;;;;;;0.40;0.40;;;14.70;1.00;;;;;;5034687;28;20199;-86
2023/12/18 11:25:49;;;;;;;0.30;0.30;;;13.00;1.00;;;;;;5034971;28;20564;-84
2023/12/18 11:28:15;;;;;;;0.40;0.40;;;11.30;1.00;;;;;;5035453;28;20259;-85
2023/12/18 11:30:43;;;;;;;0.40;0.40;;;10.60;1.00;;;;;;5036117;28;20198;-84
2023/12/18 11:33:10;;;;;;;0.43;0.43;;;10.30;1.00;;;;;;5037665;28;20657;-85
2023/12/18 11:35:37;;;;;;;0.50;0.50;;;10.40;1.00;;;;;;5036590;28;20200;-85
2023/12/18 11:38:11;;;;;;;0.40;0.40;;;10.70;1.00;;;;;;5037935;28;20176;-85
2023/12/18 11:40:40;;;;;;;0.40;0.40;;;10.70;1.00;;;;;;5041728;28;20235;-84
2023/12/18 11:43:08;;;;;;;0.50;0.50;;;10.30;1.00;;;;;;5045805;28;20270;-83
2023/12/18 11:45:44;;;;;;;0.43;0.43;;;10.00;1.00;;;;;;5044207;28;20207;-84
2023/12/18 11:48:16;;;;;;;0.40;0.40;;;10.10;1.00;;;;;;5053143;28;20225;-83
2023/12/18 11:50:43;;;;;;;0.50;0.50;;;10.20;1.00;;;;;;5043526;28;20182;-82
2023/12/18 11:53:24;;;;;;;0.50;0.50;;;10.30;1.00;;;;;;5039395;28;20214;-84
2023/12/18 11:55:51;;;;;;;0.50;0.50;;;10.50;1.00;;;;;;5037026;28;20406;-83
2023/12/18 11:58:26;;;;;;;0.50;0.50;;;10.60;1.00;;;;;;5038061;28;20553;-85
2023/12/18 12:00:55;;;;;;;0.60;0.60;;;10.50;1.00;;;;;;5034760;28;20285;-83
2023/12/18 12:03:22;;;;;;;0.50;0.50;;;10.50;1.00;;;;;;5036367;28;20677;-84
2023/12/18 12:05:48;;;;;;;0.40;0.40;;;10.40;1.00;;;;;;5035731;28;20195;-84
2023/12/18 12:08:14;;;;;;;0.50;0.50;;;10.70;1.00;;;;;;5036382;28;20176;-84
2023/12/18 12:10:42;;;;;;;0.50;0.50;;;10.20;1.00;;;;;;5040228;28;20254;-85
2023/12/18 12:13:16;;;;;;;0.60;0.60;;;9.90;1.00;;;;;;5036621;28;20654;-83
2023/12/18 12:15:41;;;;;;;0.50;0.50;;;9.80;1.00;;;;;;5034899;28;20199;-82
2023/12/18 12:18:07;;;;;;;0.50;0.50;;;10.70;1.00;;;;;;5035408;28;20486;-83
2023/12/18 12:20:33;;;;;;;0.57;0.57;;;10.60;1.00;;;;;;5037696;28;20210;-84
2023/12/18 12:23:01;;;;;;;0.50;0.50;;;10.40;1.00;;;;;;5038165;28;20297;-83
2023/12/18 12:25:27;;;;;;;0.60;0.60;;;10.30;1.00;;;;;;5038913;28;20172;-84
2023/12/18 12:27:53;;;;;;;0.50;0.50;;;10.00;1.00;;;;;;5038898;28;20176;-83
2023/12/18 12:30:18;;;;;;;0.50;0.50;;;10.30;1.00;;;;;;5039258;28;20697;-84
2023/12/18 12:32:47;;;;;;;0.53;0.53;;;10.50;1.00;;;;;;5039904;28;20191;-85
2023/12/18 12:35:16;;;;;;;0.50;0.50;;;10.40;1.00;;;;;;5039411;28;20233;-84
2023/12/18 12:37:42;;;;;;;0.60;0.60;;;11.00;1.00;;;;;;5040279;28;20185;-84
2023/12/18 12:40:11;;;;;;;0.50;0.50;;;13.10;1.00;;;;;;5037947;28;20180;-84
2023/12/18 12:42:41;;;;;;;0.40;0.40;;;15.60;1.00;;;;;;5038217;28;20410;-84
2023/12/18 12:45:13;;;;;;;0.50;0.50;;;16.30;1.00;;;;;;5036353;28;20165;-85
2023/12/18 12:47:39;;;;;;;0.50;0.50;;;17.20;1.00;;;;;;5039981;28;20223;-84
2023/12/18 12:50:06;;;;;;;0.40;0.40;;;17.10;1.00;;;;;;5039258;28;20172;-84